• Join FlightAware (Why Join?)
  • Login
  • US Flag 
Gobble Gobble! 
10:39PM EST


 

Airport Tracker/Info


-or-


 

Live Flight TrackerFlight Track Log ✈ AAL1870 ✈ 19-Apr-2013 ✈ KLAX - KORD

Flight Track Log - Related Links

Times and Time Zones

All times are in EDT time to prevent confusion due to time zone crossing. See the AAL1870 flight status page for this flight to view local times or setup timezone preferences in your user account.

Time Position Orientation Groundspeed Altitude Reporting Facility
EDT Latitude Longitude Course Direction KTS MPH feet Rate Location/Type
08:38PM 33.9330 -118.4400 260° West 164 189 1,700  Level FlightAware
08:38PM 33.9280 -118.4660 257° West 200 230 2,100 900 Climbing FlightAware
08:38PM 33.9220 -118.4830 247° West 221 254 2,400 1,500 Climbing FlightAware
08:39PM 33.9090 -118.5210 248° West 257 296 3,100 2,160 Climbing FlightAware
08:39PM 33.8990 -118.5480 246° West 257 296 4,200 3,060 Climbing FlightAware
08:40PM 33.8700 -118.5810 223° Southwest 277 319 5,400 2,760 Climbing FlightAware
08:40PM 33.8240 -118.5560 156° South 283 326 7,000 2,400 Climbing FlightAware
08:41PM 33.8180 -118.5370 111° Southeast 283 326 7,600 2,160 Climbing FlightAware
08:41PM 33.8160 -118.5240 100° East 285 328 7,900 2,400 Climbing FlightAware
08:41PM 33.8360 -118.4810 61° Northeast 284 327 9,200 2,520 Climbing FlightAware
08:41PM 33.8540 -118.4720 23° Northeast 280 322 9,800 1,800 Climbing FlightAware
08:42PM 33.9050 -118.4470 22° Northeast 321 369 10,900 2,040 Climbing FlightAware
08:43PM 33.9440 -118.4140 35° Northeast 341 392 12,200 2,700 Climbing FlightAware
08:43PM 33.9810 -118.3500 55° Northeast 355 409 14,100 2,880 Climbing FlightAware
08:44PM 34.0220 -118.2770 56° Northeast 365 420 16,300 2,820 Climbing FlightAware
08:45PM 34.0600 -118.2080 56° Northeast 371 427 18,100 2,520 Climbing FlightAware
08:45PM 34.1020 -118.1400 53° Northeast 379 436 19,700 2,280 Climbing FlightAware
08:46PM 34.1530 -118.0660 50° Northeast 391 450 21,400 2,160 Climbing FlightAware
08:47PM 34.2010 -117.9970 50° Northeast 403 464 22,800 1,860 Climbing FlightAware
08:48PM 34.2540 -117.9200 50° Northeast 420 483 24,100 1,740 Climbing FlightAware
08:48PM 34.3050 -117.8460 50° Northeast 431 496 25,300 1,920 Climbing FlightAware
08:49PM 34.3570 -117.7700 50° Northeast 434 499 26,700 1,860 Climbing FlightAware
08:50PM 34.4150 -117.6840 51° Northeast 441 507 28,000 1,620 Climbing FlightAware
08:50PM 34.4660 -117.6100 50° Northeast 446 513 29,000 1,440 Climbing FlightAware
08:51PM 34.5280 -117.5200 50° Northeast 451 519 30,100 1,380 Climbing FlightAware
08:52PM 34.5800 -117.4430 51° Northeast 458 527 31,000 1,380 Climbing FlightAware
08:52PM 34.6400 -117.3540 51° Northeast 461 531 32,100 1,500 Climbing FlightAware
08:53PM 34.6920 -117.2780 50° Northeast 458 527 33,200 1,620 Climbing FlightAware
08:54PM 34.7480 -117.1940 51° Northeast 454 522 34,300 1,380 Climbing FlightAware
08:55PM 34.8080 -117.1050 51° Northeast 455 524 35,200 1,080 Climbing FlightAware
08:55PM 34.8460 -117.0480 51° Northeast 457 526 35,700 960 Climbing FlightAware
08:56PM 34.9340 -116.9170 51° Northeast 460 529 36,800 660 Climbing FlightAware
08:57PM 34.9830 -116.8440 51° Northeast 463 533 36,900 60 Climbing FlightAware
08:57PM 35.0290 -116.7750 51° Northeast 463 533 36,900 480 Level FlightAware
08:58PM 35.1060 -116.6590 51° Northeast 38,400 540 Climbing FlightAware
09:01PM 35.3330 -116.3150 51° Northeast 459 528 39,000 120 Climbing FlightAware
09:02PM 35.4030 -116.2080 51° Northeast 458 527 39,000  Level FlightAware
09:03PM 35.4480 -116.1390 51° Northeast 458 527 39,000  Level FlightAware
09:03PM 35.4930 -116.0710 51° Northeast 458 527 39,000  Level FlightAware
09:04PM 35.5390 -116.0020 51° Northeast 458 527 39,000  Level FlightAware
09:05PM 35.5950 -115.9160 51° Northeast 458 527 39,000  Level FlightAware
09:06PM 35.6940 -115.7620 52° Northeast 469 540 39,000  Level FlightAware
09:06PM 35.7580 -115.6630 51° Northeast 470 541 39,000  Level FlightAware
09:07PM 35.8120 -115.5790 52° Northeast 473 544 39,000  Level FlightAware
09:08PM 35.8710 -115.4880 51° Northeast 474 545 39,000  Level FlightAware
09:08PM 35.9250 -115.4020 52° Northeast 469 540 39,000  Level FlightAware
09:09PM 35.9790 -115.3170 52° Northeast 465 535 39,000  Level FlightAware
09:10PM 36.0400 -115.2220 52° Northeast 466 536 39,000  Level FlightAware
09:10PM 36.0850 -115.1300 59° Northeast 482 555 39,000  Level FlightAware
09:11PM 36.1130 -115.0240 72° East 492 566 39,000  Level FlightAware
09:12PM 36.1410 -114.9050 74° East 493 567 39,000  Level FlightAware
09:13PM 36.1680 -114.7970 73° East 494 568 39,000  Level FlightAware
09:13PM 36.1940 -114.6890 73° East 495 570 39,000  Level FlightAware
09:14PM 36.2230 -114.5650 74° East 493 567 39,000  Level FlightAware
09:15PM 36.2520 -114.4450 73° East 492 566 39,000  Level FlightAware
09:15PM 36.2800 -114.3250 74° East 491 565 39,000  Level FlightAware
09:16PM 36.3070 -114.2130 73° East 492 566 39,000  Level FlightAware
09:17PM 36.3310 -114.1090 74° East 491 565 39,000  Level FlightAware
09:18PM 36.3600 -113.9870 74° East 490 564 39,000  Level FlightAware
09:18PM 36.3850 -113.8790 74° East 487 560 39,000  Level FlightAware
09:19PM 36.4100 -113.7680 74° East 486 559 39,000  Level FlightAware
09:20PM 36.4370 -113.6510 74° East 484 557 39,000  Level FlightAware
09:20PM 36.4620 -113.5440 74° East 484 557 39,000  Level FlightAware
09:21PM 36.4860 -113.4380 74° East 486 559 39,000  Level FlightAware
09:22PM 36.5130 -113.3170 74° East 487 560 39,000  Level FlightAware
09:22PM 36.5400 -113.1990 74° East 488 562 39,000  Level FlightAware
09:23PM 36.5620 -113.1020 74° East 488 562 39,000  Level FlightAware
09:24PM 36.5970 -112.9460 74° East 488 562 39,000  Level FlightAware
09:25PM 36.6180 -112.8540 74° East 488 562 39,000  Level FlightAware
09:25PM 36.6480 -112.7170 75° East 485 558 39,000  Level FlightAware
09:26PM 36.6680 -112.6280 74° East 485 558 39,000  Level FlightAware
09:27PM 36.6940 -112.5140 74° East 485 558 39,000  Level FlightAware
09:28PM 36.7150 -112.4220 74° East 485 558 39,000  Level FlightAware
09:28PM 36.7360 -112.3310 74° East 485 558 39,000  Level FlightAware
09:29PM 36.7570 -112.2390 74° East 485 558 39,000  Level FlightAware
09:30PM 36.7780 -112.1470 74° East 485 558 39,000  Level FlightAware
09:30PM 36.8050 -112.0330 73° East 485 558 39,000  Level FlightAware
09:31PM 36.8260 -111.9410 74° East 485 558 39,000  Level FlightAware
09:32PM 36.8470 -111.8500 74° East 485 558 39,000  Level FlightAware
09:32PM 36.8680 -111.7580 74° East 485 558 39,000  Level FlightAware
09:33PM 36.8890 -111.6660 74° East 485 558 39,000  Level FlightAware
09:34PM 36.9150 -111.5520 74° East 485 558 39,000  Level FlightAware
09:35PM 36.9360 -111.4600 74° East 485 558 39,000  Level FlightAware
09:35PM 36.9570 -111.3680 74° East 485 558 39,000  Level FlightAware
09:36PM 37.0017 -111.0531 74° East 481 554 39,000  Level Denver Center
09:37PM 37.0350 -110.8914 75° East 483 556 39,000  Level Denver Center
09:38PM 37.0736 -110.6969 76° East 483 556 39,000  Level Denver Center
09:39PM 37.1061 -110.5319 76° East 489 563 39,000  Level Denver Center
09:40PM 37.1397 -110.3650 76° East 494 568 39,000  Level Denver Center
09:41PM 37.1736 -110.1992 76° East 492 566 39,000  Level Denver Center
09:42PM 37.2078 -110.0233 76° East 495 570 39,000  Level Denver Center
09:43PM 37.2383 -109.8625 77° East 495 570 39,000  Level Denver Center
09:44PM 37.2756 -109.6747 76° East 497 572 39,000  Level Denver Center
09:45PM 37.3064 -109.5108 77° East 500 575 39,000  Level Denver Center
09:46PM 37.3425 -109.3181 77° East 507 583 39,000  Level Denver Center
09:47PM 37.3739 -109.1525 77° East 509 586 39,000  Level Denver Center
09:48PM 37.4100 -108.9619 77° East 503 579 39,000  Level Denver Center
09:49PM 37.4397 -108.7975 77° East 502 578 39,000  Level Denver Center
09:50PM 37.4739 -108.6047 77° East 504 580 39,000  Level Denver Center
09:51PM 37.5039 -108.4431 77° East 500 575 39,000  Level Denver Center
09:52PM 37.5328 -108.2819 77° East 493 567 39,000  Level Denver Center
09:53PM 37.5661 -108.0911 78° East 498 573 39,000  Level Denver Center
09:54PM 37.5964 -107.9281 77° East 498 573 39,000  Level Denver Center
09:55PM 37.6289 -107.7353 78° East 502 578 39,000  Level Denver Center
10:02PM 37.8108 -106.6640 78° East 492 566 39,000  Level FlightAware ADS-B
10:02PM 37.8250 -106.5770 78° East 492 566 39,000  Level FlightAware ADS-B
10:03PM 37.8389 -106.4920 78° East 493 567 39,000  Level FlightAware ADS-B
10:03PM 37.8525 -106.4070 79° East 493 567 39,000  Level FlightAware ADS-B
10:04PM 37.8663 -106.3210 78° East 494 568 39,000  Level FlightAware ADS-B
10:04PM 37.8801 -106.2350 78° East 494 568 39,000  Level FlightAware ADS-B
10:05PM 37.8942 -106.1470 78° East 494 568 39,000  Level FlightAware ADS-B
10:05PM 37.9081 -106.0590 79° East 495 570 39,000  Level FlightAware ADS-B
10:06PM 37.9222 -105.9690 79° East 493 567 39,000  Level FlightAware ADS-B
10:06PM 37.9357 -105.8830 79° East 487 560 39,000  Level FlightAware ADS-B
10:07PM 37.9487 -105.7990 79° East 485 558 39,000  Level FlightAware ADS-B
10:07PM 37.9620 -105.7150 79° East 483 556 39,000  Level FlightAware ADS-B
10:08PM 37.9748 -105.6320 79° East 483 556 39,000  Level FlightAware ADS-B
10:08PM 37.9880 -105.5480 79° East 482 555 39,000  Level FlightAware ADS-B
10:09PM 38.0012 -105.4620 79° East 481 554 39,000  Level FlightAware ADS-B
10:09PM 38.0143 -105.3760 79° East 481 554 39,000  Level FlightAware ADS-B
10:10PM 38.0269 -105.2930 79° East 479 551 39,000  Level FlightAware ADS-B
10:10PM 38.0394 -105.2100 79° East 479 551 39,000  Level FlightAware ADS-B
10:11PM 38.0519 -105.1270 79° East 478 550 39,000  Level FlightAware ADS-B
10:11PM 38.0646 -105.0420 79° East 476 548 39,000  Level FlightAware ADS-B
10:12PM 38.0778 -104.9520 79° East 476 548 39,000  Level FlightAware ADS-B
10:12PM 38.0900 -104.8700 79° East 476 548 39,000  Level FlightAware ADS-B
10:13PM 38.1031 -104.7810 79° East 476 548 39,000  Level FlightAware ADS-B
10:14PM 38.1159 -104.6940 79° East 477 549 39,000  Level FlightAware ADS-B
10:14PM 38.1279 -104.6120 79° East 477 549 39,000  Level FlightAware ADS-B
10:15PM 38.1410 -104.5220 79° East 477 549 39,000  Level FlightAware ADS-B
10:15PM 38.1538 -104.4330 80° East 479 551 39,000  Level FlightAware ADS-B
10:16PM 38.1658 -104.3490 80° East 479 551 39,000  Level FlightAware ADS-B
10:16PM 38.1793 -104.2540 80° East 480 552 39,000  Level FlightAware ADS-B
10:17PM 38.1915 -104.1680 80° East 483 556 39,000  Level FlightAware ADS-B
10:17PM 38.2041 -104.0790 80° East 487 560 39,000  Level FlightAware ADS-B
10:18PM 38.2161 -103.9940 80° East 489 563 39,000  Level FlightAware ADS-B
10:18PM 38.2285 -103.9050 80° East 489 563 39,000  Level FlightAware ADS-B
10:19PM 38.2403 -103.8190 80° East 488 562 39,000  Level FlightAware ADS-B
10:19PM 38.2519 -103.7340 80° East 487 560 39,000  Level FlightAware ADS-B
10:20PM 38.2636 -103.6490 80° East 489 563 39,000  Level FlightAware ADS-B
10:20PM 38.2761 -103.5580 80° East 488 562 39,000  Level FlightAware ADS-B
10:21PM 38.2877 -103.4730 80° East 487 560 39,000  Level FlightAware ADS-B
10:21PM 38.2991 -103.3880 80° East 488 562 39,000  Level FlightAware ADS-B
10:22PM 38.3109 -103.2980 80° East 489 563 39,000  Level FlightAware ADS-B
10:22PM 38.3226 -103.2100 80° East 492 566 39,000  Level FlightAware ADS-B
10:23PM 38.3340 -103.1230 80° East 493 567 39,000  Level FlightAware ADS-B
10:23PM 38.3460 -103.0320 80° East 493 567 39,000  Level FlightAware ADS-B
10:24PM 38.3573 -102.9460 80° East 490 564 39,000  Level FlightAware ADS-B
10:24PM 38.3685 -102.8600 81° East 489 563 39,000  Level FlightAware ADS-B
10:25PM 38.3806 -102.7660 81° East 491 565 39,000  Level FlightAware ADS-B
10:25PM 38.3918 -102.6790 81° East 492 566 39,000  Level FlightAware ADS-B
10:26PM 38.4030 -102.5920 81° East 491 565 39,000  Level FlightAware ADS-B
10:27PM 38.4145 -102.5010 81° East 491 565 39,000  Level FlightAware ADS-B
10:27PM 38.4255 -102.4120 81° East 491 565 39,000  Level FlightAware ADS-B
10:28PM 38.4363 -102.3260 81° East 493 567 39,000  Level FlightAware ADS-B
10:28PM 38.4474 -102.2390 81° East 496 571 39,000  Level FlightAware ADS-B
10:29PM 38.4590 -102.1450 81° East 498 573 39,000  Level FlightAware ADS-B
10:29PM 38.4699 -102.0560 81° East 498 573 39,000  Level FlightAware ADS-B
10:30PM 38.4805 -101.9690 81° East 497 572 39,000  Level FlightAware ADS-B
10:30PM 38.4909 -101.8830 81° East 495 570 39,000  Level FlightAware ADS-B
10:31PM 38.5013 -101.7960 81° East 494 568 39,000  Level FlightAware ADS-B
10:31PM 38.5119 -101.7070 81° East 492 566 39,000  Level FlightAware ADS-B
10:32PM 38.5203 -101.6408 81° East 493 567 39,000  Level Denver Center
10:33PM 38.5386 -101.4775 82° East 486 559 39,000  Level Denver Center
10:34PM 38.5578 -101.3131 81° East 488 562 39,000  Level Denver Center
10:35PM 38.5792 -101.1228 82° East 483 556 39,000  Level Denver Center
10:36PM 38.5978 -100.9606 82° East 482 555 39,000  Level Denver Center
10:37PM 38.6189 -100.7728 82° East 476 548 39,000  Level Denver Center
10:38PM 38.6375 -100.6097 82° East 482 555 39,000  Level Denver Center
10:39PM 38.6575 -100.4206 82° East 480 552 39,000  Level Denver Center
10:40PM 38.6744 -100.2594 82° East 477 549 39,000  Level Denver Center
10:41PM 38.6922 -100.0986 82° East 477 549 39,000  Level Denver Center
10:42PM 38.7117 -99.9094 82° East 481 554 39,000  Level Denver Center
10:43PM 38.7289 -99.7475 82° East 480 552 39,000  Level Denver Center
10:44PM 38.7478 -99.5550 83° East 486 559 39,000  Level Denver Center
10:45PM 38.7642 -99.3903 83° East 486 559 39,000  Level Denver Center
10:46PM 38.7722 -99.2914 84° East 486 559 39,000  Level Kansas City Center
10:47PM 38.7906 -99.1164 82° East 493 567 39,000  Level Kansas City Center
10:48PM 38.8075 -98.9433 83° East 489 563 39,000  Level Kansas City Center
10:49PM 38.8228 -98.7694 84° East 491 565 39,000  Level Kansas City Center
10:50PM 38.8394 -98.5967 83° East 489 563 39,000  Level Kansas City Center
10:51PM 38.8553 -98.4236 83° East 488 562 39,000  Level Kansas City Center
10:56PM 38.9780 -97.4230 83° East 477 549 39,000  Level FlightAware
10:57PM 39.0020 -97.3320 71° East 477 549 39,000  Level FlightAware
10:58PM 39.0270 -97.2410 70° East 477 549 39,000  Level FlightAware
10:59PM 39.0570 -97.1270 71° East 477 549 39,000  Level FlightAware
10:59PM 39.0820 -97.0350 71° East 477 549 39,000  Level FlightAware
11:00PM 39.1060 -96.9440 71° East 477 549 39,000  Level FlightAware
11:01PM 39.1300 -96.8520 71° East 477 549 39,000  Level FlightAware
11:01PM 39.1550 -96.7610 70° East 477 549 39,000  Level FlightAware
11:02PM 39.1850 -96.6460 71° East 477 549 39,000  Level FlightAware
11:03PM 39.2100 -96.5550 70° East 477 549 39,000  Level FlightAware
11:03PM 39.2340 -96.4630 71° East 477 549 39,000  Level FlightAware
11:04PM 39.2520 -96.3650 77° East 488 562 39,000  Level FlightAware
11:05PM 39.2900 -96.2160 72° East 491 565 39,000  Level FlightAware
11:06PM 39.3200 -96.0950 72° East 494 568 39,000  Level FlightAware
11:06PM 39.3460 -95.9900 72° East 496 571 39,000  Level FlightAware
11:07PM 39.3780 -95.8630 72° East 499 574 39,000  Level FlightAware
11:08PM 39.4080 -95.7400 72° East 502 578 39,000  Level FlightAware
11:08PM 39.4440 -95.5940 72° East 503 579 39,000  Level FlightAware
11:09PM 39.4710 -95.4860 72° East 505 581 39,000  Level FlightAware
11:10PM 39.5060 -95.3430 72° East 502 578 39,000  Level FlightAware
11:10PM 39.5450 -95.1790 73° East 499 574 39,000  Level FlightAware
11:11PM 39.5650 -95.0950 73° East 500 575 39,000  Level FlightAware
11:12PM 39.5840 -95.0190 72° East 501 577 39,000  Level FlightAware
11:13PM 39.6130 -94.8980 73° East 503 579 39,000  Level FlightAware
11:13PM 39.6370 -94.7970 73° East 504 580 39,000  Level FlightAware
11:14PM 39.6650 -94.6750 73° East 504 580 39,000  Level FlightAware
11:15PM 39.7540 -94.3520 70° East 501 577 39,000  Level FlightAware
11:15PM 39.7890 -94.2300 69° East 501 577 39,000  Level FlightAware
11:16PM 39.8210 -94.1170 70° East 501 577 39,000  Level FlightAware
11:17PM 39.8540 -94.0030 69° East 501 577 39,000  Level FlightAware
11:17PM 39.8900 -93.8750 70° East 500 575 39,000  Level FlightAware
11:18PM 39.9220 -93.7620 70° East 499 574 39,000  Level FlightAware
11:19PM 39.9540 -93.6470 70° East 499 574 39,000  Level FlightAware
11:20PM 39.9880 -93.5240 70° East 498 573 39,000  Level FlightAware
11:20PM 40.0240 -93.3930 70° East 497 572 39,000  Level FlightAware
11:21PM 40.0550 -93.2840 70° East 495 570 39,000  Level FlightAware
11:22PM 40.0850 -93.1710 71° East 490 564 39,000  Level FlightAware
11:22PM 40.1190 -93.0490 70° East 488 562 39,000  Level FlightAware
11:23PM 40.1490 -92.9380 70° East 487 560 39,000  Level FlightAware
11:24PM 40.1780 -92.8330 70° East 487 560 39,000  Level FlightAware
11:24PM 40.2120 -92.7040 71° East 487 560 39,000  Level FlightAware
11:25PM 40.2440 -92.5870 70° East 489 563 39,000  Level FlightAware
11:26PM 40.2730 -92.4770 71° East 490 564 39,000  Level FlightAware
11:27PM 40.3070 -92.3500 71° East 494 568 39,000  Level FlightAware
11:27PM 40.3370 -92.2360 71° East 498 573 39,000  Level FlightAware
11:28PM 40.3700 -92.1110 71° East 499 574 39,000 -540 Level FlightAware
11:29PM 40.3990 -92.0000 71° East 498 573 38,300 -960 Descending FlightAware
11:29PM 40.4360 -91.8610 71° East 493 567 37,600 -1,680 Descending FlightAware
11:30PM 40.4740 -91.7140 71° East 493 567 35,500 -2,160 Descending FlightAware
11:31PM 40.5030 -91.6000 71° East 484 557 34,400 -1,680 Descending FlightAware
11:32PM 40.5340 -91.4770 72° East 487 560 33,200 -1,020 Descending FlightAware
11:32PM 40.5670 -91.3640 69° East 483 556 33,000 -180 Descending FlightAware
11:33PM 40.6050 -91.2550 65° Northeast 484 557 33,000  Level FlightAware
11:34PM 40.6450 -91.1370 66° East 485 558 33,000  Level FlightAware
11:34PM 40.6820 -91.0290 66° East 485 558 33,000  Level FlightAware
11:35PM 40.7180 -90.9230 66° East 486 559 33,000  Level FlightAware
11:36PM 40.7600 -90.7970 66° East 487 560 33,000  Level FlightAware
11:37PM 40.7960 -90.6920 66° East 485 558 33,000  Level FlightAware
11:37PM 40.8360 -90.5710 66° East 486 559 33,000  Level FlightAware
11:38PM 40.8720 -90.4630 66° East 486 559 33,000  Level FlightAware
11:39PM 40.9090 -90.3520 66° East 487 560 33,000  Level FlightAware
11:39PM 40.9510 -90.2280 66° East 487 560 33,000 -300 Level FlightAware
11:40PM 40.9860 -90.1210 67° East 478 550 32,600 -1,740 Descending FlightAware
11:41PM 41.0200 -90.0170 67° East 482 555 30,700 -2,940 Descending FlightAware
11:41PM 41.0570 -89.9040 66° East 480 552 28,700 -2,700 Descending FlightAware
11:42PM 41.0910 -89.7990 67° East 466 536 27,100 -2,340 Descending FlightAware
11:43PM 41.1260 -89.6940 66° East 451 519 25,600 -2,280 Descending FlightAware
11:43PM 41.1620 -89.5840 66° East 435 501 23,900 -2,100 Descending FlightAware
11:44PM 41.1980 -89.4920 62° Northeast 421 484 22,700 -1,920 Descending FlightAware
11:45PM 41.2400 -89.3900 61° Northeast 414 476 21,200 -1,980 Descending FlightAware
11:46PM 41.2760 -89.3000 62° Northeast 408 470 19,900 -1,980 Descending FlightAware
11:46PM 41.3100 -89.2150 62° Northeast 400 460 18,600 -1,920 Descending FlightAware
11:47PM 41.3480 -89.1200 62° Northeast 389 448 17,200 -1,920 Descending FlightAware
11:48PM 41.3830 -89.0320 62° Northeast 384 442 15,900 -1,920 Descending FlightAware
11:48PM 41.4110 -88.9630 62° Northeast 376 433 14,800 -1,800 Descending FlightAware
11:49PM 41.4470 -88.8730 62° Northeast 364 419 13,500 -1,800 Descending FlightAware
11:50PM 41.4790 -88.7910 62° Northeast 356 410 12,300 -1,740 Descending FlightAware
11:50PM 41.5100 -88.7140 62° Northeast 357 411 11,200 -900 Descending FlightAware
11:51PM 41.5440 -88.6280 62° Northeast 353 406 11,100 -120 Descending FlightAware
11:52PM 41.5740 -88.5510 62° Northeast 352 405 11,100  Level FlightAware
11:52PM 41.6050 -88.4760 61° Northeast 350 403 11,100  Level FlightAware
11:53PM 41.6480 -88.4000 53° Northeast 346 398 11,100 -120 Level FlightAware
11:54PM 41.6890 -88.3300 52° Northeast 322 371 11,000 -480 Descending FlightAware
11:55PM 41.7260 -88.2660 52° Northeast 294 338 10,500 -960 Descending FlightAware
11:55PM 41.7590 -88.2090 52° Northeast 285 328 9,700 -1,140 Descending FlightAware
11:56PM 41.7830 -88.1680 52° Northeast 277 319 9,200 -1,020 Descending FlightAware
11:56PM 41.8020 -88.1350 52° Northeast 269 310 8,800 -1,200 Descending FlightAware
11:57PM 41.8250 -88.0950 52° Northeast 269 310 8,100 -1,320 Descending FlightAware
11:57PM 41.8430 -88.0630 53° Northeast 266 306 7,600 -780 Descending FlightAware
11:58PM 41.8650 -88.0230 54° Northeast 241 277 7,400 -600 Descending FlightAware
11:58PM 41.8810 -87.9870 59° Northeast 239 275 7,000 -420 Descending FlightAware
11:58PM 41.8840 -87.9640 80° East 227 261 7,100 120 Climbing FlightAware
11:59PM 41.8840 -87.9340 90° East 209 241 7,100  Level FlightAware
11:59PM 41.8840 -87.8950 90° East 207 238 7,100  Level FlightAware
12:00AM 41.8840 -87.8630 90° East 208 239 7,100  Level FlightAware
12:00AM 41.8840 -87.8220 90° East 206 237 7,100  Level FlightAware
12:01AM 41.8840 -87.7880 90° East 207 238 7,100 -360 Level FlightAware
12:01AM 41.8840 -87.7350 90° East 208 239 6,700 -840 Descending FlightAware
12:02AM 41.8840 -87.7020 90° East 206 237 6,200 -1,140 Descending FlightAware
12:02AM 41.8840 -87.6640 90° East 204 235 5,700 -1,140 Descending FlightAware
12:03AM 41.8840 -87.6240 90° East 206 237 5,100 -600 Descending FlightAware
12:03AM 41.8840 -87.5860 90° East 204 235 5,100  Level FlightAware
12:03AM 41.8840 -87.5700 90° East 201 231 5,100  Level FlightAware
12:04AM 41.8840 -87.5360 90° East 201 231 5,100  Level FlightAware
12:04AM 41.8840 -87.5000 90° East 200 230 5,100  Level FlightAware
12:05AM 41.8840 -87.4620 90° East 197 227 5,100  Level FlightAware
12:05AM 41.8830 -87.4440 94° East 198 228 5,100  Level FlightAware
12:06AM 41.8830 -87.4130 90° East 200 230 5,100  Level FlightAware
12:06AM 41.8830 -87.4040 90° East 200 230 5,100 -840 Level FlightAware
12:06AM 41.9000 -87.3750 52° Northeast 165 190 4,500 -1,020 Descending FlightAware
12:07AM 41.9190 -87.3730 North 165 190 4,100 -720 Descending FlightAware
12:07AM 41.9260 -87.3730 360° North 165 190 4,100  Level FlightAware
12:07AM 41.9370 -87.3820 329° Northwest 153 176 4,100  Level FlightAware
12:08AM 41.9460 -87.4050 298° West 153 176 4,100  Level FlightAware
12:08AM 41.9550 -87.4300 296° West 152 175 4,100  Level FlightAware
12:09AM 41.9630 -87.4510 297° West 159 183 4,100  Level FlightAware
12:09AM 41.9690 -87.4820 285° West 165 190 4,100  Level FlightAware
12:10AM 41.9690 -87.5090 270° West 166 191 4,100  Level FlightAware
12:10AM 41.9690 -87.5380 270° West 167 192 4,100  Level FlightAware
12:10AM 41.9690 -87.5570 270° West 167 192 4,100  Level FlightAware
12:11AM 41.9690 -87.5830 270° West 167 192 4,100  Level FlightAware
12:11AM 41.9690 -87.6090 270° West 169 194 4,100  Level FlightAware
12:12AM 41.9690 -87.6390 270° West 160 184 4,100 -120 Level FlightAware
12:12AM 41.9690 -87.6610 270° West 160 184 4,000 -600 Descending FlightAware
12:13AM 41.9690 -87.6920 270° West 153 176 3,600 -840 Descending FlightAware
12:13AM 41.9690 -87.7190 270° West 148 170 3,200 -900 Descending FlightAware
12:13AM 41.9690 -87.7440 270° West 150 173 2,800 -900 Descending FlightAware
12:14AM 41.9690 -87.7700 270° West 147 169 2,400 -840 Descending FlightAware
12:14AM 41.9690 -87.7820 270° West 134 154 2,200 -780 Descending FlightAware
12:15AM 41.9690 -87.8030 270° West 126 145 1,900 -660 Descending FlightAware
12:15AM 41.9690 -87.8240 270° West 119 137 1,600 -720 Descending FlightAware
12:16AM 41.9690 -87.8490 270° West 122 140 1,200 -780 Descending FlightAware
12:16AM 41.9690 -87.8700 270° West 124 143 900 -600 Descending FlightAware
12:16AM 41.9690 -87.8730 270° West 123 142 900  Level FlightAware